Flight Track Log - Related Links

Times and Time Zones

All times are in EDT time to prevent confusion due to time zone crossing. See the USC110 flight status page for this flight to view local times or setup timezone preferences in your user account.

Time Position Orientation Groundspeed Altitude Reporting Facility
EDT Latitude Longitude Course Direction KTS MPH feet Rate Location/Type
Sat 07:09:45 PM 42.1500 -87.9167 191° South 104 120 1,900  Level Chicago TRACON
Sat 07:10:45 PM 42.1667 -87.9333 323° Northwest 117 135 2,900 725 Climbing Chicago TRACON
Sat 07:11:16 PM 42.1667 -87.9558 270° West 126 145 3,000 65 Climbing Chicago Center
Sat 07:12:18 PM 42.1656 -88.0083 268° West 141 162 3,000  Level Chicago Center
Sat 07:13:20 PM 42.1667 -88.0758 271° West 146 168 3,000  Level Chicago Center
Sat 07:14:21 PM 42.1444 -88.1217 237° Southwest 157 181 3,000  Level Chicago Center
Sat 07:15:00 PM 41.8935 -88.0878 191° South  Level Estimated
Sat 07:15:23 PM 42.1086 -88.1572 216° Southwest 161 185 3,000  Level Chicago Center
Sat 07:16:25 PM 42.0731 -88.1944 218° Southwest 162 186 3,000  Level Chicago Center
Sat 07:17:27 PM 42.0369 -88.2306 217° Southwest 163 188 3,000 145 Level Chicago Center
Sat 07:18:29 PM 41.9942 -88.2747 218° Southwest 163 188 3,300 435 Climbing Chicago Center
Sat 07:19:31 PM 41.9544 -88.2767 182° South 159 183 3,900 341 Climbing Chicago Center
Sat 07:20:32 PM 41.9078 -88.2728 176° South 164 189 4,000 49 Climbing Chicago Center
Sat 07:21:34 PM 41.8636 -88.2867 193° South 179 206 4,000  Level Chicago Center
Sat 07:22:36 PM 41.8239 -88.3153 208° Southwest 169 194 4,000  Level Chicago Center
Sat 07:23:38 PM 41.7856 -88.3483 213° Southwest 165 190 4,000  Level Chicago Center
Sat 07:24:39 PM 41.7386 -88.3853 210° Southwest 165 190 4,000  Level Chicago Center
Sat 07:25:41 PM 41.6989 -88.4156 210° Southwest 165 190 4,000  Level Chicago Center
Sat 07:26:43 PM 41.6592 -88.4469 211° Southwest 166 191 4,000  Level Chicago Center
Sat 07:27:45 PM 41.6189 -88.4772 209° Southwest 167 192 4,000  Level Chicago Center
Sat 07:28:47 PM 41.5794 -88.5083 211° Southwest 167 192 4,000  Level Chicago Center
Sat 07:29:49 PM 41.5311 -88.5444 209° Southwest 167 192 4,000  Level Chicago Center
Sat 07:30:50 PM 41.4911 -88.5761 211° Southwest 168 193 4,000 341 Level Chicago Center
Sat 07:31:52 PM 41.4536 -88.6036 209° Southwest 160 184 4,700 581 Climbing Chicago Center
Sat 07:32:54 PM 41.4189 -88.6314 211° Southwest 150 173 5,200 581 Climbing Chicago Center
Sat 07:33:56 PM 41.3836 -88.6586 210° Southwest 149 171 5,900 774 Climbing Chicago Center
Sat 07:34:58 PM 41.3433 -88.6894 210° Southwest 143 165 6,800 829 Climbing Chicago Center
Sat 07:35:59 PM 41.3094 -88.7156 210° Southwest 141 162 7,600 585 Climbing Chicago Center
Sat 07:37:01 PM 41.2756 -88.7408 209° Southwest 140 161 8,000 194 Climbing Chicago Center
Sat 07:38:03 PM 41.2386 -88.7694 210° Southwest 149 171 8,000  Level Chicago Center
Sat 07:39:05 PM 41.1994 -88.8008 211° Southwest 161 185 8,000  Level Chicago Center
Sat 07:40:07 PM 41.1592 -88.8303 209° Southwest 164 189 8,000  Level Chicago Center
Sat 07:41:09 PM 41.1125 -88.8664 210° Southwest 164 189 8,000  Level Chicago Center
Sat 07:42:11 PM 41.0725 -88.8964 209° Southwest 165 190 8,000  Level Chicago Center
Sat 07:43:13 PM 41.0322 -88.9261 209° Southwest 166 191 8,000  Level Chicago Center
Sat 07:44:15 PM 40.9939 -88.9553 210° Southwest 164 189 8,000  Level Chicago Center
Sat 07:45:16 PM 40.9539 -88.9867 211° Southwest 165 190 8,000  Level Chicago Center
Sat 07:46:18 PM 40.9136 -89.0169 210° Southwest 165 190 8,000 -48 Level Chicago Center
Sat 07:47:20 PM 40.8658 -89.0528 210° Southwest 165 190 7,900 -48 Descending Chicago Center
Sat 07:48:22 PM 40.8256 -89.0828 209° Southwest 166 191 7,900  Level Chicago Center
Sat 07:49:24 PM 40.7858 -89.1131 210° Southwest 164 189 7,900  Level Chicago Center
Sat 07:50:26 PM 40.7450 -89.1431 209° Southwest 167 192 7,900  Level Chicago Center
Sat 07:51:28 PM 40.7047 -89.1739 210° Southwest 167 192 7,900  Level Chicago Center
Sat 07:52:30 PM 40.6631 -89.2031 208° Southwest 168 193 7,900  Level Chicago Center
Sat 07:53:32 PM 40.6236 -89.2342 211° Southwest 166 191 7,900  Level Chicago Center
Sat 07:54:33 PM 40.5747 -89.2694 209° Southwest 166 191 7,900  Level Chicago Center
Sat 07:55:35 PM 40.5350 -89.3003 211° Southwest 166 191 7,900  Level Chicago Center
Sat 07:56:37 PM 40.4947 -89.3306 210° Southwest 166 191 7,900  Level Chicago Center
Sat 07:57:39 PM 40.4536 -89.3608 209° Southwest 168 193 7,900  Level Chicago Center
Sat 07:58:41 PM 40.4122 -89.3897 208° Southwest 168 193 7,900  Level Chicago Center
Sat 07:59:43 PM 40.3717 -89.4208 210° Southwest 169 194 7,900 61 Level Chicago Center
Sat 08:00:19 PM 40.3461 -89.4397 209° Southwest 169 194 8,000 62 Climbing Kansas City Center
Sat 08:01:20 PM 40.3047 -89.4703 209° Southwest 170 196 8,000  Level Kansas City Center
Sat 08:02:21 PM 40.2644 -89.5014 211° Southwest 169 194 8,000 -49 Level Kansas City Center
Sat 08:03:22 PM 40.2233 -89.5306 208° Southwest 168 193 7,900 -49 Descending Kansas City Center
Sat 08:04:24 PM 40.1747 -89.5667 210° Southwest 167 192 7,900  Level Kansas City Center
Sat 08:05:25 PM 40.1339 -89.5978 210° Southwest 168 193 7,900  Level Kansas City Center
Sat 08:06:26 PM 40.0925 -89.6275 209° Southwest 169 194 7,900  Level Kansas City Center
Sat 08:07:27 PM 40.0519 -89.6567 209° Southwest 167 192 7,900  Level Kansas City Center
Sat 08:08:28 PM 40.0111 -89.6869 210° Southwest 167 192 7,900  Level Kansas City Center
Sat 08:09:30 PM 39.9694 -89.7167 209° Southwest 170 196 7,900  Level Kansas City Center
Sat 08:10:31 PM 39.9292 -89.7464 210° Southwest 167 192 7,900  Level Kansas City Center
Sat 08:11:32 PM 39.8886 -89.7747 208° Southwest 168 193 7,900  Level Kansas City Center
Sat 08:12:33 PM 39.8475 -89.8067 211° Southwest 168 193 7,900  Level Kansas City Center
Sat 08:13:34 PM 39.8053 -89.8367 209° Southwest 171 197 7,900  Level Kansas City Center
Sat 08:14:36 PM 39.7642 -89.8669 210° Southwest 170 196 7,900  Level Kansas City Center
Sat 08:15:37 PM 39.7158 -89.9011 209° Southwest 169 194 7,900  Level Kansas City Center
Sat 08:16:38 PM 39.6742 -89.9319 210° Southwest 171 197 7,900 -49 Level Kansas City Center
Sat 08:17:39 PM 39.6325 -89.9625 209° Southwest 172 198 7,800 -293 Descending Kansas City Center
Sat 08:18:41 PM 39.5889 -89.9942 209° Southwest 177 204 7,300 -488 Descending Kansas City Center
Sat 08:19:42 PM 39.5439 -90.0264 209° Southwest 183 211 6,800 -639 Descending Kansas City Center
Sat 08:20:43 PM 39.4983 -90.0586 209° Southwest 184 212 6,000 -780 Descending Kansas City Center
Sat 08:21:45 PM 39.4528 -90.0897 208° Southwest 186 214 5,200 -780 Descending Kansas City Center
Sat 08:22:46 PM 39.4006 -90.1086 196° South 192 221 4,400 -590 Descending Kansas City Center
Sat 08:23:47 PM 39.3506 -90.1278 197° South 189 217 4,000 -197 Descending Kansas City Center
Sat 08:24:48 PM 39.2944 -90.1508 198° South 182 209 4,000  Level Kansas City Center
Sat 08:25:50 PM 39.2492 -90.1686 197° South 176 203 4,000  Level Kansas City Center
Sat 08:26:51 PM 39.2031 -90.1853 196° South 173 199 4,000  Level Kansas City Center
Sat 08:27:52 PM 39.1572 -90.2033 197° South 173 199 4,000  Level Kansas City Center
Sat 08:28:54 PM 39.1111 -90.2208 196° South 173 199 4,000  Level Kansas City Center
Sat 08:29:55 PM 39.0650 -90.2383 196° South 173 199 4,000  Level Kansas City Center
Sat 08:30:56 PM 39.0194 -90.2572 198° South 173 199 4,000  Level Kansas City Center
Sat 08:31:58 PM 38.9744 -90.2758 198° South 171 197 4,000  Level Kansas City Center
Sat 08:32:59 PM 38.9283 -90.2931 196° South 172 198 4,000  Level Kansas City Center
Sat 08:34:00 PM 38.8722 -90.3144 197° South 173 199 4,000  Level Kansas City Center
Sat 08:35:02 PM 38.8308 -90.3306 197° South 167 192 4,000  Level Kansas City Center
Sat 08:36:03 PM 38.7939 -90.3453 197° South 153 176 4,000  Level Kansas City Center
Sat 08:37:04 PM 38.7628 -90.3692 211° Southwest 150 173 4,000  Level Kansas City Center
Sat 08:38:05 PM 38.7389 -90.4019 227° Southwest 153 176 4,000 -146 Level Kansas City Center
Sat 08:39:07 PM 38.6919 -90.4044 182° South 150 173 3,700 -488 Descending Kansas City Center
Sat 08:40:08 PM 38.6797 -90.4533 252° West 160 184 3,000 -639 Descending Kansas City Center
Sat 08:41:09 PM 38.6806 -90.5128 271° West 165 190 2,400 -639 Descending Kansas City Center
Sat 08:42:10 PM 38.6719 -90.5736 260° West 171 197 1,700 -829 Descending Kansas City Center
Sat 08:43:12 PM 38.6625 -90.6322 258° West 171 197 700 -585 Descending Kansas City Center
Sat 08:44:13 PM 38.6539 -90.6817 257° West 167 192 500 -197 Descending Kansas City Center

Login

Don't have an account? Register now (free) for customized features, flight alerts, and more!